createdAt,value
2022-09-02T00:01:40.583Z,13.00
2022-09-02T00:04:14.281Z,13.10
2022-09-02T00:06:42.949Z,13.10
2022-09-02T00:09:13.390Z,13.10
2022-09-02T00:11:42.087Z,13.10
2022-09-02T00:14:13.134Z,13.10
2022-09-02T00:16:41.905Z,13.20
2022-09-02T00:19:09.106Z,13.20
2022-09-02T00:21:36.261Z,13.20
2022-09-02T00:24:05.576Z,13.20
2022-09-02T00:26:32.958Z,13.20
2022-09-02T00:28:59.851Z,13.10
2022-09-02T00:31:29.132Z,13.20
2022-09-02T00:33:56.525Z,13.20
2022-09-02T00:36:23.515Z,13.20
2022-09-02T00:38:51.566Z,13.20
2022-09-02T00:41:21.750Z,13.20
2022-09-02T00:44:04.696Z,13.10
2022-09-02T00:46:32.959Z,13.20
2022-09-02T00:49:31.102Z,13.10
2022-09-02T00:52:07.783Z,13.10
2022-09-02T00:54:40.133Z,13.10
2022-09-02T00:57:13.329Z,13.10
2022-09-02T00:59:58.931Z,13.00
2022-09-02T01:02:28.613Z,13.00
2022-09-02T01:04:56.903Z,13.00
2022-09-02T01:07:27.212Z,13.00
2022-09-02T01:09:58.153Z,13.00
2022-09-02T01:12:27.833Z,12.90
2022-09-02T01:14:54.657Z,12.90
2022-09-02T01:17:21.569Z,12.80
2022-09-02T01:19:53.337Z,12.80
2022-09-02T01:22:26.640Z,12.80
2022-09-02T01:24:56.227Z,12.90
2022-09-02T01:27:24.282Z,12.80
2022-09-02T01:29:57.778Z,12.80
2022-09-02T01:32:25.916Z,12.80
2022-09-02T01:34:53.628Z,12.70
2022-09-02T01:37:21.535Z,12.70
2022-09-02T01:39:49.433Z,12.70
2022-09-02T01:42:16.690Z,12.60
2022-09-02T01:44:46.496Z,12.60
2022-09-02T01:47:23.458Z,12.60
2022-09-02T01:49:51.324Z,12.50
2022-09-02T01:52:20.183Z,12.50
2022-09-02T01:54:47.012Z,12.50
2022-09-02T01:57:14.783Z,12.50
2022-09-02T01:59:43.806Z,12.50
2022-09-02T02:02:10.703Z,12.40
2022-09-02T02:04:38.778Z,12.40
2022-09-02T02:07:06.864Z,12.40
2022-09-02T02:09:33.747Z,12.40
2022-09-02T02:12:00.876Z,12.30
2022-09-02T02:14:27.730Z,12.30
2022-09-02T02:16:54.630Z,12.30
2022-09-02T02:19:21.585Z,12.30
2022-09-02T02:21:48.432Z,12.30
2022-09-02T02:24:15.438Z,12.30
2022-09-02T02:26:42.493Z,12.20
2022-09-02T02:29:10.113Z,12.20
2022-09-02T02:31:37.339Z,12.20
2022-09-02T02:34:04.762Z,12.20
2022-09-02T02:36:34.689Z,12.10
2022-09-02T02:39:01.634Z,12.10
2022-09-02T02:41:31.076Z,12.00
2022-09-02T02:43:57.937Z,12.00
2022-09-02T02:46:24.869Z,11.90
2022-09-02T02:48:51.708Z,11.90
2022-09-02T02:51:18.645Z,11.90
2022-09-02T02:53:45.506Z,11.90
2022-09-02T02:56:12.307Z,11.80
2022-09-02T02:58:39.127Z,11.80
2022-09-02T03:01:06.086Z,11.80
2022-09-02T03:03:33.222Z,11.70
2022-09-02T03:06:00.226Z,11.70
2022-09-02T03:08:27.247Z,11.60
2022-09-02T03:10:56.248Z,11.60
2022-09-02T03:13:25.096Z,11.60
2022-09-02T03:15:54.017Z,11.60
2022-09-02T03:18:21.000Z,11.60
2022-09-02T03:20:48.099Z,11.60
2022-09-02T03:23:15.549Z,11.60
2022-09-02T03:25:45.067Z,11.60
2022-09-02T03:28:12.837Z,11.60
2022-09-02T03:30:40.622Z,11.60
2022-09-02T03:33:10.135Z,11.50
2022-09-02T03:35:44.296Z,11.50
2022-09-02T03:38:12.514Z,11.50
2022-09-02T03:40:42.172Z,11.40
2022-09-02T03:43:09.210Z,11.40
2022-09-02T03:45:36.121Z,11.40
2022-09-02T03:48:03.606Z,11.40
2022-09-02T03:50:33.335Z,11.40
2022-09-02T03:53:00.516Z,11.40
2022-09-02T03:55:28.295Z,11.30
2022-09-02T03:57:55.708Z,11.30
2022-09-02T04:00:25.825Z,11.30
2022-09-02T04:02:55.344Z,11.30
2022-09-02T04:05:23.323Z,11.30
2022-09-02T04:07:53.741Z,11.30
2022-09-02T04:10:22.007Z,11.20
2022-09-02T04:12:49.879Z,11.30
2022-09-02T04:15:16.800Z,11.20
2022-09-02T04:18:40.214Z,11.20
2022-09-02T04:21:19.791Z,11.10
2022-09-02T04:23:47.360Z,11.10
2022-09-02T04:26:16.434Z,11.10
2022-09-02T04:28:43.678Z,11.10
2022-09-02T04:31:13.624Z,11.00
2022-09-02T04:33:40.564Z,11.00
2022-09-02T04:36:09.698Z,11.00
2022-09-02T04:38:39.976Z,11.00
2022-09-02T04:41:11.248Z,11.10
2022-09-02T04:43:38.288Z,11.00
2022-09-02T04:46:12.910Z,11.00
2022-09-02T04:48:40.415Z,11.00
2022-09-02T04:51:12.536Z,11.00
2022-09-02T04:53:40.587Z,11.00
2022-09-02T04:56:10.801Z,11.00
2022-09-02T04:58:38.516Z,11.10
2022-09-02T05:01:10.379Z,11.10
2022-09-02T05:03:37.799Z,11.10
2022-09-02T05:06:07.737Z,11.20
2022-09-02T05:08:37.987Z,11.20
2022-09-02T05:11:32.948Z,11.20
2022-09-02T05:14:02.739Z,11.30
2022-09-02T05:16:33.898Z,11.30
2022-09-02T05:19:00.992Z,11.40
2022-09-02T05:21:27.754Z,11.40
2022-09-02T05:23:54.792Z,11.40
2022-09-02T05:26:22.704Z,11.50
2022-09-02T05:28:50.562Z,11.50
2022-09-02T05:31:20.344Z,11.60
2022-09-02T05:33:48.310Z,11.70
2022-09-02T05:36:19.107Z,11.70
2022-09-02T05:38:47.021Z,11.80
2022-09-02T05:41:23.065Z,11.90
2022-09-02T05:43:51.487Z,12.10
2022-09-02T05:46:22.326Z,12.40
2022-09-02T05:49:08.673Z,12.90
2022-09-02T05:51:46.249Z,13.50
2022-09-02T05:54:24.104Z,14.10
2022-09-02T05:56:54.742Z,14.50
2022-09-02T05:59:23.166Z,14.70
2022-09-02T06:01:51.088Z,14.90
2022-09-02T06:04:17.987Z,15.20
2022-09-02T06:06:44.968Z,15.30
2022-09-02T06:09:14.487Z,15.30
2022-09-02T06:11:45.416Z,15.40
2022-09-02T06:14:17.824Z,15.30
2022-09-02T06:16:45.250Z,15.10
2022-09-02T06:19:15.359Z,15.00
2022-09-02T06:21:46.476Z,14.90
2022-09-02T06:24:13.916Z,14.90
2022-09-02T06:26:41.809Z,15.00
2022-09-02T06:29:09.643Z,15.40
2022-09-02T06:31:36.827Z,15.90
2022-09-02T06:34:04.758Z,16.50
2022-09-02T06:36:32.061Z,17.10
2022-09-02T06:39:00.534Z,17.70
2022-09-02T06:41:29.960Z,18.20
2022-09-02T06:43:59.265Z,18.70
2022-09-02T06:46:30.231Z,19.10
2022-09-02T06:48:57.274Z,19.60
2022-09-02T06:51:26.907Z,20.00
2022-09-02T06:53:54.092Z,20.40
2022-09-02T06:56:20.948Z,20.90
2022-09-02T06:58:47.981Z,21.30
2022-09-02T07:01:23.515Z,21.70
2022-09-02T07:04:09.521Z,21.90
2022-09-02T07:06:42.391Z,22.30
2022-09-02T07:09:11.413Z,22.50
2022-09-02T07:11:38.942Z,22.50
2022-09-02T07:14:06.739Z,22.80
2022-09-02T07:16:37.271Z,23.30
2022-09-02T07:19:07.351Z,23.80
2022-09-02T07:21:36.994Z,24.10
2022-09-02T07:24:04.201Z,24.30
2022-09-02T07:26:31.213Z,24.40
2022-09-02T07:28:58.483Z,24.40
2022-09-02T07:31:27.455Z,24.90
2022-09-02T07:33:58.785Z,25.30
2022-09-02T07:36:27.107Z,25.10
2022-09-02T07:38:55.035Z,25.00
2022-09-02T07:41:22.968Z,25.10
2022-09-02T07:43:51.780Z,25.30
2022-09-02T07:46:19.556Z,25.40
2022-09-02T07:48:50.199Z,25.50
2022-09-02T07:51:19.260Z,25.90
2022-09-02T07:53:46.452Z,26.20
2022-09-02T07:56:14.049Z,26.30
2022-09-02T07:58:42.358Z,26.30
2022-09-02T08:01:09.755Z,26.20
2022-09-02T08:03:39.604Z,26.40
2022-09-02T08:06:07.420Z,26.70
2022-09-02T08:08:34.886Z,26.80
2022-09-02T08:13:35.643Z,27.20
2022-09-02T08:16:03.353Z,27.20
2022-09-02T08:18:30.731Z,27.20
2022-09-02T08:20:57.721Z,27.20
2022-09-02T08:23:36.659Z,27.20
2022-09-02T08:26:05.736Z,27.20
2022-09-02T08:28:33.020Z,27.10
2022-09-02T08:31:04.216Z,27.00
2022-09-02T08:33:31.063Z,27.30
2022-09-02T08:36:06.182Z,27.50
2022-09-02T08:38:33.164Z,27.60
2022-09-02T08:41:00.997Z,27.60
2022-09-02T08:43:40.474Z,27.50
2022-09-02T08:46:12.208Z,27.70
2022-09-02T08:48:45.728Z,27.70
2022-09-02T08:51:53.783Z,27.60
2022-09-02T08:54:30.503Z,27.90
2022-09-02T08:56:58.208Z,27.90
2022-09-02T08:59:27.561Z,28.00
2022-09-02T09:02:09.309Z,28.20
2022-09-02T09:05:06.178Z,28.30
2022-09-02T09:07:40.864Z,28.50
2022-09-02T09:10:17.801Z,28.50
2022-09-02T09:13:20.203Z,28.40
2022-09-02T09:16:06.367Z,28.20
2022-09-02T09:18:39.529Z,28.00
2022-09-02T09:21:11.284Z,28.00
2022-09-02T09:23:39.717Z,28.30
2022-09-02T09:26:23.481Z,28.50
2022-09-02T09:28:50.682Z,28.10
2022-09-02T09:31:20.227Z,28.10
2022-09-02T09:34:12.313Z,28.40
2022-09-02T09:36:44.925Z,28.40
2022-09-02T09:39:30.276Z,28.50
2022-09-02T09:42:02.916Z,28.40
2022-09-02T09:44:45.252Z,28.60
2022-09-02T09:47:29.407Z,29.00
2022-09-02T09:50:17.347Z,29.10
2022-09-02T09:52:44.504Z,29.10
2022-09-02T09:55:12.904Z,29.40
2022-09-02T09:57:45.730Z,29.40
2022-09-02T10:00:32.084Z,29.40
2022-09-02T10:03:01.644Z,28.90
2022-09-02T10:05:32.832Z,28.60
2022-09-02T10:08:09.990Z,28.50
2022-09-02T10:10:55.131Z,28.40
2022-09-02T10:13:27.119Z,28.40
2022-09-02T10:16:31.740Z,28.50
2022-09-02T10:19:04.851Z,28.40
2022-09-02T10:21:56.685Z,28.20
2022-09-02T10:24:55.262Z,28.30
2022-09-02T10:27:40.929Z,28.10
2022-09-02T10:30:29.035Z,27.80
2022-09-02T10:33:01.754Z,28.10
2022-09-02T10:35:44.025Z,28.00
2022-09-02T10:38:10.822Z,27.90
2022-09-02T10:40:47.162Z,27.60
2022-09-02T10:43:33.565Z,27.60
2022-09-02T10:46:04.528Z,27.10
2022-09-02T10:49:10.917Z,27.10
2022-09-02T10:51:48.320Z,27.50
2022-09-02T10:54:50.322Z,27.60
2022-09-02T10:57:25.995Z,27.70
2022-09-02T10:59:54.879Z,27.80
2022-09-02T11:02:44.843Z,27.70
2022-09-02T11:05:29.643Z,27.50
2022-09-02T11:08:09.777Z,27.40
2022-09-02T11:11:08.317Z,27.40
2022-09-02T11:14:02.971Z,27.80
2022-09-02T11:16:46.041Z,27.90
2022-09-02T11:19:32.802Z,27.70
2022-09-02T11:22:27.322Z,28.10
2022-09-02T11:25:16.460Z,28.40
2022-09-02T11:27:49.492Z,28.00
2022-09-02T11:30:21.527Z,28.10
2022-09-02T11:33:13.142Z,28.30
2022-09-02T11:35:40.029Z,28.40
2022-09-02T11:38:36.505Z,28.50
2022-09-02T11:41:37.927Z,28.30
2022-09-02T11:44:14.718Z,28.20
2022-09-02T11:47:09.144Z,27.80
2022-09-02T11:49:36.063Z,27.20
2022-09-02T11:55:19.748Z,27.40
2022-09-02T11:57:55.038Z,27.40
2022-09-02T12:01:05.371Z,27.50
2022-09-02T12:03:51.860Z,27.50
2022-09-02T12:06:22.907Z,27.50
2022-09-02T12:08:50.607Z,27.50
2022-09-02T12:11:38.433Z,26.80
2022-09-02T12:14:07.972Z,27.00
2022-09-02T12:16:44.333Z,27.00
2022-09-02T12:19:11.789Z,26.50
2022-09-02T12:22:16.770Z,26.20
2022-09-02T12:24:53.941Z,26.40
2022-09-02T12:27:31.747Z,26.90
2022-09-02T12:29:59.125Z,26.90
2022-09-02T12:32:45.177Z,26.80
2022-09-02T12:35:31.419Z,26.40
2022-09-02T12:38:16.859Z,26.20
2022-09-02T12:40:54.912Z,25.90
2022-09-02T12:43:32.449Z,26.10
2022-09-02T12:46:17.941Z,26.30
2022-09-02T12:49:17.286Z,26.80
2022-09-02T12:51:54.922Z,26.90
2022-09-02T12:54:47.788Z,27.20
2022-09-02T12:57:16.963Z,27.20
2022-09-02T12:59:45.863Z,27.30
2022-09-02T13:02:36.120Z,27.30
2022-09-02T13:05:15.950Z,27.40
2022-09-02T13:08:02.566Z,27.40
2022-09-02T13:10:57.562Z,27.30
2022-09-02T13:14:01.907Z,27.20
2022-09-02T13:16:53.360Z,26.90
2022-09-02T13:19:38.607Z,26.60
2022-09-02T13:23:10.032Z,26.60
2022-09-02T13:26:48.484Z,26.90
2022-09-02T13:29:24.984Z,26.60
2022-09-02T13:32:15.924Z,26.20
2022-09-02T13:34:49.459Z,26.00
2022-09-02T13:37:37.121Z,25.80
2022-09-02T13:40:25.615Z,25.80
2022-09-02T13:42:55.309Z,26.00
2022-09-02T13:45:27.249Z,25.60
2022-09-02T13:47:59.605Z,25.50
2022-09-02T13:50:30.009Z,25.30
2022-09-02T13:55:57.420Z,25.10
2022-09-02T13:58:30.937Z,25.10
2022-09-02T14:01:17.113Z,25.20
2022-09-02T14:03:50.347Z,25.30
2022-09-02T14:06:22.665Z,25.10
2022-09-02T14:08:58.575Z,25.00
2022-09-02T14:11:26.312Z,24.90
2022-09-02T14:13:54.928Z,24.80
2022-09-02T14:16:33.419Z,24.70
2022-09-02T14:19:04.543Z,24.60
2022-09-02T14:21:32.736Z,24.70
2022-09-02T14:23:59.869Z,24.70
2022-09-02T14:26:41.131Z,24.70
2022-09-02T14:29:12.345Z,24.80
2022-09-02T14:31:39.217Z,24.90
2022-09-02T14:34:31.972Z,24.90
2022-09-02T14:36:58.784Z,24.70
2022-09-02T14:39:25.602Z,24.60
2022-09-02T14:41:56.301Z,24.60
2022-09-02T14:44:36.421Z,24.50
2022-09-02T14:47:12.875Z,24.50
2022-09-02T14:49:53.133Z,24.50
2022-09-02T14:52:27.818Z,24.60
2022-09-02T14:54:56.587Z,24.70
2022-09-02T14:57:38.141Z,24.90
2022-09-02T15:00:18.605Z,24.90
2022-09-02T15:02:56.915Z,24.70
2022-09-02T15:05:24.632Z,24.60
2022-09-02T15:07:51.519Z,24.60
2022-09-02T15:10:18.421Z,24.60
2022-09-02T15:12:52.316Z,24.50
2022-09-02T15:15:19.377Z,24.30
2022-09-02T15:17:49.237Z,24.20
2022-09-02T15:20:16.626Z,24.10
2022-09-02T15:22:43.605Z,24.00
2022-09-02T15:25:10.674Z,23.90
2022-09-02T15:27:37.984Z,24.00
2022-09-02T15:30:06.635Z,24.10
2022-09-02T15:32:33.831Z,24.20
2022-09-02T15:35:00.640Z,24.10
2022-09-02T15:37:27.959Z,24.10
2022-09-02T15:39:54.914Z,24.10
2022-09-02T15:42:22.009Z,24.00
2022-09-02T15:44:48.935Z,24.00
2022-09-02T15:47:15.725Z,24.10
2022-09-02T15:49:42.609Z,24.20
2022-09-02T15:52:09.594Z,24.20
2022-09-02T15:54:36.376Z,24.30
2022-09-02T15:57:03.302Z,24.30
2022-09-02T15:59:30.170Z,24.30
2022-09-02T16:01:58.804Z,24.20
2022-09-02T16:04:27.441Z,24.20
2022-09-02T16:06:54.329Z,24.20
2022-09-02T16:09:21.810Z,24.20
2022-09-02T16:11:51.778Z,24.20
2022-09-02T16:14:20.665Z,24.10
2022-09-02T16:16:49.452Z,24.10
2022-09-02T16:19:18.685Z,24.00
2022-09-02T16:21:45.563Z,23.80
2022-09-02T16:24:12.443Z,23.70
2022-09-02T16:26:41.334Z,23.70
2022-09-02T16:29:10.886Z,23.60
2022-09-02T16:31:39.540Z,23.60
2022-09-02T16:34:10.110Z,23.60
2022-09-02T16:36:42.765Z,23.60
2022-09-02T16:39:11.815Z,23.50
2022-09-02T16:41:44.456Z,23.50
2022-09-02T16:44:15.985Z,23.40
2022-09-02T16:46:44.211Z,23.40
2022-09-02T16:49:13.668Z,23.30
2022-09-02T16:51:41.002Z,23.20
2022-09-02T16:54:09.625Z,23.00
2022-09-02T16:56:44.947Z,22.80
2022-09-02T16:59:12.929Z,22.70
2022-09-02T17:01:40.881Z,22.60
2022-09-02T17:04:09.020Z,22.50
2022-09-02T17:06:41.339Z,22.40
2022-09-02T17:09:09.727Z,22.30
2022-09-02T17:11:39.847Z,22.30
2022-09-02T17:14:09.523Z,22.20
2022-09-02T17:16:39.541Z,22.20
2022-09-02T17:19:07.588Z,22.20
2022-09-02T17:21:41.393Z,22.20
2022-09-02T17:24:10.317Z,22.20
2022-09-02T17:26:39.608Z,22.20
2022-09-02T17:29:26.306Z,22.10
2022-09-02T17:31:59.477Z,22.20
2022-09-02T17:34:26.676Z,22.10
2022-09-02T17:36:53.683Z,22.10
2022-09-02T17:39:21.753Z,22.00
2022-09-02T17:41:54.532Z,22.00
2022-09-02T17:44:36.364Z,21.90
2022-09-02T17:47:16.017Z,21.90
2022-09-02T17:49:44.490Z,21.90
2022-09-02T17:52:14.300Z,21.80
2022-09-02T17:54:41.699Z,21.70
2022-09-02T17:57:17.593Z,21.70
2022-09-02T18:00:02.737Z,21.70
2022-09-02T18:03:03.061Z,21.60
2022-09-02T18:05:50.123Z,21.50
2022-09-02T18:08:52.678Z,21.40
2022-09-02T18:11:20.500Z,21.30
2022-09-02T18:14:14.542Z,21.20
2022-09-02T18:17:28.493Z,21.10
2022-09-02T18:19:58.096Z,21.00
2022-09-02T18:23:06.655Z,20.90
2022-09-02T18:26:07.100Z,20.70
2022-09-02T18:28:56.883Z,20.60
2022-09-02T18:32:00.318Z,20.50
2022-09-02T18:34:46.242Z,20.40
2022-09-02T18:38:04.211Z,20.30
2022-09-02T18:40:55.330Z,20.20
2022-09-02T18:43:40.741Z,20.10
2022-09-02T18:46:09.482Z,20.10
2022-09-02T18:48:38.772Z,20.00
2022-09-02T18:51:11.784Z,20.00
2022-09-02T18:53:45.548Z,19.90
2022-09-02T18:56:13.368Z,19.90
2022-09-02T18:58:47.020Z,19.80
2022-09-02T19:01:30.194Z,19.80
2022-09-02T19:04:00.854Z,19.80
2022-09-02T19:06:34.392Z,19.80
2022-09-02T19:09:13.685Z,19.80
2022-09-02T19:11:41.495Z,19.70
2022-09-02T19:14:08.309Z,19.70
2022-09-02T19:16:37.948Z,19.70
2022-09-02T19:19:06.662Z,19.60
2022-09-02T19:21:47.313Z,19.60
2022-09-02T19:24:21.447Z,19.50
2022-09-02T19:26:49.279Z,19.50
2022-09-02T19:29:17.168Z,19.50
2022-09-02T19:31:46.885Z,19.40
2022-09-02T19:34:16.281Z,19.40
2022-09-02T19:36:46.419Z,19.30
2022-09-02T19:39:13.524Z,19.20
2022-09-02T19:41:40.530Z,19.10
2022-09-02T19:44:07.637Z,19.10
2022-09-02T19:47:15.307Z,19.00
2022-09-02T19:49:21.867Z,18.90
2022-09-02T19:51:49.263Z,18.80
2022-09-02T19:54:18.429Z,18.70
2022-09-02T19:56:45.714Z,18.60
2022-09-02T19:59:13.633Z,18.60
2022-09-02T20:01:40.635Z,18.60
2022-09-02T20:04:07.859Z,18.50
2022-09-02T20:06:35.051Z,18.40
2022-09-02T20:09:01.938Z,18.30
2022-09-02T20:11:29.549Z,18.20
2022-09-02T20:13:56.912Z,18.20
2022-09-02T20:16:26.479Z,18.20
2022-09-02T20:18:54.428Z,18.10
2022-09-02T20:21:28.075Z,18.10
2022-09-02T20:24:01.324Z,18.00
2022-09-02T20:27:00.486Z,18.00
2022-09-02T20:29:27.397Z,17.90
2022-09-02T20:32:24.357Z,17.90
2022-09-02T20:35:04.038Z,17.90
2022-09-02T20:37:34.421Z,17.80
2022-09-02T20:40:05.073Z,17.80
2022-09-02T20:42:53.475Z,17.80
2022-09-02T20:45:48.021Z,17.80
2022-09-02T20:48:32.559Z,17.80
2022-09-02T20:51:16.000Z,17.80
2022-09-02T20:54:08.845Z,17.80
2022-09-02T20:56:47.322Z,17.70
2022-09-02T20:59:17.020Z,17.70
2022-09-02T21:01:45.573Z,17.80
2022-09-02T21:04:21.530Z,17.80
2022-09-02T21:09:23.419Z,17.80
2022-09-02T21:12:04.037Z,17.80
2022-09-02T21:14:41.882Z,17.70
2022-09-02T21:17:30.785Z,17.60
2022-09-02T21:20:15.927Z,17.60
2022-09-02T21:22:48.431Z,17.50
2022-09-02T21:25:28.755Z,17.50
2022-09-02T21:28:03.540Z,17.50
2022-09-02T21:30:38.367Z,17.40
2022-09-02T21:33:09.846Z,17.40
2022-09-02T21:35:47.905Z,17.30
2022-09-02T21:38:16.945Z,17.30
2022-09-02T21:41:01.751Z,17.20
2022-09-02T21:43:28.730Z,17.10
2022-09-02T21:46:03.837Z,17.00
2022-09-02T21:49:02.196Z,16.90
2022-09-02T21:51:34.085Z,16.80
2022-09-02T21:54:11.345Z,16.80
2022-09-02T21:57:03.065Z,16.80
2022-09-02T21:59:46.008Z,16.70
2022-09-02T22:02:20.768Z,16.70
2022-09-02T22:05:04.016Z,16.70
2022-09-02T22:07:37.115Z,16.60
2022-09-02T22:10:13.706Z,16.60
2022-09-02T22:12:46.762Z,16.60
2022-09-02T22:15:15.748Z,16.60
2022-09-02T22:17:51.695Z,16.60
2022-09-02T22:20:32.048Z,16.40
2022-09-02T22:23:26.433Z,16.50
2022-09-02T22:26:05.744Z,16.50
2022-09-02T22:28:41.317Z,16.40
2022-09-02T22:31:12.836Z,16.40
2022-09-02T22:33:48.011Z,16.40
2022-09-02T22:36:36.666Z,16.40
2022-09-02T22:39:05.111Z,16.30
2022-09-02T22:41:36.024Z,16.40
2022-09-02T22:44:03.297Z,16.40
2022-09-02T22:46:59.306Z,16.30
2022-09-02T22:49:46.970Z,16.30
2022-09-02T22:52:48.219Z,16.20
2022-09-02T22:55:47.154Z,16.20
2022-09-02T22:58:21.432Z,16.20
2022-09-02T23:01:01.721Z,16.10
2022-09-02T23:03:57.183Z,16.10
2022-09-02T23:06:30.392Z,16.00
2022-09-02T23:09:08.555Z,16.00
2022-09-02T23:12:10.612Z,16.00
2022-09-02T23:15:04.266Z,16.00
2022-09-02T23:17:37.002Z,15.90
2022-09-02T23:20:42.555Z,15.80
2022-09-02T23:23:19.306Z,15.70
2022-09-02T23:26:04.254Z,15.70
2022-09-02T23:28:43.454Z,15.60
2022-09-02T23:31:32.658Z,15.60
2022-09-02T23:34:30.733Z,15.50
2022-09-02T23:37:13.263Z,15.50
2022-09-02T23:40:18.046Z,15.30
2022-09-02T23:42:46.868Z,15.30
2022-09-02T23:45:21.989Z,15.30
2022-09-02T23:47:58.237Z,15.20
2022-09-02T23:50:34.675Z,15.10
2022-09-02T23:53:20.577Z,15.00
2022-09-02T23:56:02.745Z,14.90
2022-09-02T23:58:48.660Z,14.80
